Main page
METAR-TAF:

METAR-TAF

Airports :

London City Airport

London, England

latitude: 51-30N, longitude: 000-03E, elevation: 5 m

Current weather observation

The report was made 15 minutes ago, at 18:50 UTC
Wind 4 kt from the East, varying between East and South/Southeast
Temperature 4°C
Humidity 81%
Pressure 1018 hPa
Visibility 10 km or more

METAR: EGLC 211850Z AUTO 10004KT 080V150 9999 NCD 04/01 Q1018

Time: 19:05 (19:05 UTC)

Forecast

The report was made 2 hours and 0 minutes ago, at 17:05 UTC
Forecast valid from 21 at 18 UTC to 21 at 21 UTC
Wind 6 kt from the East/Southeast
Visibility 10 km or more
Scattered clouds at a height of 3500 ft
Probability 40%
from 21 at 18 UTC to 21 at 20 UTC
Visibility: 8000 m
Becoming
from 21 at 20 UTC to 21 at 21 UTC
Visibility: 7000 m

TAF: EGLC 211705Z 2118/2121 11006KT 9999 SCT035 PROB40 2118/2120 8000 BECMG 2120/2121 7000

Weather observations and forecasts of more than 4000 airports (METAR and TAF reports).

The available stations are represented by yellow and red dots on the map.

Hover mouse over dot to see the name of the station.

Then click to see weather observations and forecasts.

To change the map : click on the green buttons with a black cross to zoom in, on the green button with a dash to zoom out, or on the green arrows for adjacent maps.


METAR-TAF: